sensor_id;sensor_type;location;lat;lon;timestamp;P1;durP1;ratioP1;P2;durP2;ratioP2
18657;SDS011;9458;50.942;5.074;2022-10-16T00:01:29;4.82;;;1.88;;
18657;SDS011;9458;50.942;5.074;2022-10-16T00:03:58;2.38;;;2.17;;
18657;SDS011;9458;50.942;5.074;2022-10-16T00:06:28;4.15;;;1.60;;
18657;SDS011;9458;50.942;5.074;2022-10-16T00:09:07;1.75;;;1.20;;
18657;SDS011;9458;50.942;5.074;2022-10-16T00:11:35;3.65;;;1.60;;
18657;SDS011;9458;50.942;5.074;2022-10-16T00:14:05;1.80;;;1.70;;
18657;SDS011;9458;50.942;5.074;2022-10-16T00:16:35;2.10;;;1.50;;
18657;SDS011;9458;50.942;5.074;2022-10-16T00:19:10;2.03;;;1.50;;
18657;SDS011;9458;50.942;5.074;2022-10-16T00:21:42;1.40;;;1.30;;
18657;SDS011;9458;50.942;5.074;2022-10-16T00:24:12;1.98;;;1.50;;
18657;SDS011;9458;50.942;5.074;2022-10-16T00:26:40;1.80;;;1.35;;
18657;SDS011;9458;50.942;5.074;2022-10-16T00:29:18;2.95;;;1.10;;
18657;SDS011;9458;50.942;5.074;2022-10-16T00:31:53;3.15;;;1.15;;
18657;SDS011;9458;50.942;5.074;2022-10-16T00:34:31;2.97;;;1.13;;
18657;SDS011;9458;50.942;5.074;2022-10-16T00:37:03;3.65;;;1.13;;
18657;SDS011;9458;50.942;5.074;2022-10-16T00:39:34;1.20;;;1.10;;
18657;SDS011;9458;50.942;5.074;2022-10-16T00:42:04;2.20;;;1.27;;
18657;SDS011;9458;50.942;5.074;2022-10-16T00:44:43;1.83;;;0.98;;
18657;SDS011;9458;50.942;5.074;2022-10-16T00:47:19;1.42;;;0.85;;
18657;SDS011;9458;50.942;5.074;2022-10-16T00:49:58;1.25;;;0.90;;
18657;SDS011;9458;50.942;5.074;2022-10-16T00:52:31;1.30;;;1.17;;
18657;SDS011;9458;50.942;5.074;2022-10-16T00:55:01;2.53;;;1.20;;
18657;SDS011;9458;50.942;5.074;2022-10-16T00:57:30;1.08;;;1.00;;
18657;SDS011;9458;50.942;5.074;2022-10-16T00:59:59;2.58;;;1.15;;
18657;SDS011;9458;50.942;5.074;2022-10-16T01:02:28;1.23;;;1.05;;
18657;SDS011;9458;50.942;5.074;2022-10-16T01:04:56;1.20;;;1.10;;
18657;SDS011;9458;50.942;5.074;2022-10-16T01:07:27;2.95;;;1.30;;
18657;SDS011;9458;50.942;5.074;2022-10-16T01:10:09;1.38;;;1.10;;
18657;SDS011;9458;50.942;5.074;2022-10-16T01:12:45;5.28;;;1.40;;
18657;SDS011;9458;50.942;5.074;2022-10-16T01:15:17;3.10;;;1.38;;
18657;SDS011;9458;50.942;5.074;2022-10-16T01:17:51;1.10;;;1.00;;
18657;SDS011;9458;50.942;5.074;2022-10-16T01:20:25;3.08;;;1.20;;
18657;SDS011;9458;50.942;5.074;2022-10-16T01:23:00;1.85;;;1.20;;
18657;SDS011;9458;50.942;5.074;2022-10-16T01:28:47;1.40;;;1.30;;
18657;SDS011;9458;50.942;5.074;2022-10-16T01:31:20;2.67;;;1.42;;
18657;SDS011;9458;50.942;5.074;2022-10-16T01:33:54;2.03;;;1.50;;
18657;SDS011;9458;50.942;5.074;2022-10-16T01:36:28;2.40;;;1.13;;
18657;SDS011;9458;50.942;5.074;2022-10-16T01:39:03;2.65;;;1.30;;
18657;SDS011;9458;50.942;5.074;2022-10-16T01:41:33;1.77;;;1.40;;
18657;SDS011;9458;50.942;5.074;2022-10-16T01:44:08;1.60;;;1.50;;
18657;SDS011;9458;50.942;5.074;2022-10-16T01:46:41;2.65;;;1.90;;
18657;SDS011;9458;50.942;5.074;2022-10-16T01:49:12;2.35;;;1.40;;
18657;SDS011;9458;50.942;5.074;2022-10-16T01:51:40;2.08;;;1.40;;
18657;SDS011;9458;50.942;5.074;2022-10-16T01:54:11;1.60;;;1.50;;
18657;SDS011;9458;50.942;5.074;2022-10-16T01:56:41;1.50;;;1.40;;
18657;SDS011;9458;50.942;5.074;2022-10-16T01:59:11;3.33;;;2.15;;
18657;SDS011;9458;50.942;5.074;2022-10-16T02:01:42;1.73;;;1.50;;
18657;SDS011;9458;50.942;5.074;2022-10-16T02:04:15;2.90;;;1.83;;
18657;SDS011;9458;50.942;5.074;2022-10-16T02:06:47;12.80;;;1.58;;
18657;SDS011;9458;50.942;5.074;2022-10-16T02:09:14;1.70;;;1.60;;
18657;SDS011;9458;50.942;5.074;2022-10-16T02:11:42;1.85;;;1.67;;
18657;SDS011;9458;50.942;5.074;2022-10-16T02:14:11;2.78;;;1.70;;
18657;SDS011;9458;50.942;5.074;2022-10-16T02:16:40;3.92;;;1.90;;
18657;SDS011;9458;50.942;5.074;2022-10-16T02:19:08;6.15;;;1.90;;
18657;SDS011;9458;50.942;5.074;2022-10-16T02:21:38;6.63;;;2.10;;
18657;SDS011;9458;50.942;5.074;2022-10-16T02:24:13;3.30;;;2.63;;
18657;SDS011;9458;50.942;5.074;2022-10-16T02:26:48;5.15;;;1.95;;
18657;SDS011;9458;50.942;5.074;2022-10-16T02:29:22;3.25;;;2.70;;
18657;SDS011;9458;50.942;5.074;2022-10-16T02:31:53;4.00;;;2.10;;
18657;SDS011;9458;50.942;5.074;2022-10-16T02:34:25;2.00;;;1.80;;
18657;SDS011;9458;50.942;5.074;2022-10-16T02:36:55;3.00;;;1.98;;
18657;SDS011;9458;50.942;5.074;2022-10-16T02:39:24;1.85;;;1.75;;
18657;SDS011;9458;50.942;5.074;2022-10-16T02:41:53;3.75;;;2.05;;
18657;SDS011;9458;50.942;5.074;2022-10-16T02:44:22;2.22;;;1.88;;
18657;SDS011;9458;50.942;5.074;2022-10-16T02:46:50;2.78;;;1.70;;
18657;SDS011;9458;50.942;5.074;2022-10-16T02:49:17;2.90;;;1.40;;
18657;SDS011;9458;50.942;5.074;2022-10-16T02:51:44;3.92;;;1.70;;
18657;SDS011;9458;50.942;5.074;2022-10-16T02:54:11;2.60;;;1.35;;
18657;SDS011;9458;50.942;5.074;2022-10-16T02:56:39;3.13;;;1.40;;
18657;SDS011;9458;50.942;5.074;2022-10-16T02:59:06;5.13;;;1.48;;
18657;SDS011;9458;50.942;5.074;2022-10-16T03:01:35;4.53;;;1.40;;
18657;SDS011;9458;50.942;5.074;2022-10-16T03:04:05;1.38;;;1.27;;
18657;SDS011;9458;50.942;5.074;2022-10-16T03:06:32;3.85;;;1.75;;
18657;SDS011;9458;50.942;5.074;2022-10-16T03:09:01;4.57;;;1.48;;
18657;SDS011;9458;50.942;5.074;2022-10-16T03:11:33;1.70;;;1.30;;
18657;SDS011;9458;50.942;5.074;2022-10-16T03:14:04;2.63;;;1.50;;
18657;SDS011;9458;50.942;5.074;2022-10-16T03:16:32;1.50;;;1.38;;
18657;SDS011;9458;50.942;5.074;2022-10-16T03:19:02;1.95;;;1.48;;
18657;SDS011;9458;50.942;5.074;2022-10-16T03:21:29;2.78;;;1.65;;
18657;SDS011;9458;50.942;5.074;2022-10-16T03:23:57;3.80;;;1.60;;
18657;SDS011;9458;50.942;5.074;2022-10-16T03:26:25;2.03;;;1.42;;
18657;SDS011;9458;50.942;5.074;2022-10-16T03:28:53;2.70;;;1.70;;
18657;SDS011;9458;50.942;5.074;2022-10-16T03:31:21;1.70;;;1.48;;
18657;SDS011;9458;50.942;5.074;2022-10-16T03:33:51;2.53;;;1.77;;
18657;SDS011;9458;50.942;5.074;2022-10-16T03:36:22;3.00;;;1.60;;
18657;SDS011;9458;50.942;5.074;2022-10-16T03:38:53;1.95;;;1.52;;
18657;SDS011;9458;50.942;5.074;2022-10-16T03:41:23;2.40;;;1.50;;
18657;SDS011;9458;50.942;5.074;2022-10-16T03:44:00;1.98;;;1.73;;
18657;SDS011;9458;50.942;5.074;2022-10-16T03:46:28;2.65;;;1.98;;
18657;SDS011;9458;50.942;5.074;2022-10-16T03:48:56;2.35;;;1.95;;
18657;SDS011;9458;50.942;5.074;2022-10-16T03:51:25;3.30;;;1.98;;
18657;SDS011;9458;50.942;5.074;2022-10-16T03:53:53;2.20;;;1.90;;
18657;SDS011;9458;50.942;5.074;2022-10-16T03:56:22;3.78;;;2.03;;
18657;SDS011;9458;50.942;5.074;2022-10-16T03:58:50;2.70;;;1.73;;
18657;SDS011;9458;50.942;5.074;2022-10-16T04:01:18;2.72;;;2.10;;
18657;SDS011;9458;50.942;5.074;2022-10-16T04:03:55;3.35;;;1.73;;
18657;SDS011;9458;50.942;5.074;2022-10-16T04:06:25;2.95;;;2.33;;
18657;SDS011;9458;50.942;5.074;2022-10-16T04:08:53;2.60;;;2.10;;
18657;SDS011;9458;50.942;5.074;2022-10-16T04:11:20;5.57;;;2.30;;
18657;SDS011;9458;50.942;5.074;2022-10-16T04:13:50;5.97;;;2.40;;
18657;SDS011;9458;50.942;5.074;2022-10-16T04:16:18;5.30;;;2.33;;
18657;SDS011;9458;50.942;5.074;2022-10-16T04:18:46;3.03;;;2.20;;
18657;SDS011;9458;50.942;5.074;2022-10-16T04:21:14;6.07;;;2.35;;
18657;SDS011;9458;50.942;5.074;2022-10-16T04:23:44;4.28;;;2.05;;
18657;SDS011;9458;50.942;5.074;2022-10-16T04:26:12;2.47;;;1.73;;
18657;SDS011;9458;50.942;5.074;2022-10-16T04:28:40;1.80;;;1.70;;
18657;SDS011;9458;50.942;5.074;2022-10-16T04:31:08;2.03;;;1.60;;
18657;SDS011;9458;50.942;5.074;2022-10-16T04:33:37;6.57;;;2.53;;
18657;SDS011;9458;50.942;5.074;2022-10-16T04:36:05;2.25;;;2.05;;
18657;SDS011;9458;50.942;5.074;2022-10-16T04:38:33;4.97;;;1.73;;
18657;SDS011;9458;50.942;5.074;2022-10-16T04:41:05;2.00;;;1.67;;
18657;SDS011;9458;50.942;5.074;2022-10-16T04:43:33;4.25;;;1.52;;
18657;SDS011;9458;50.942;5.074;2022-10-16T04:46:03;1.60;;;1.50;;
18657;SDS011;9458;50.942;5.074;2022-10-16T04:48:31;1.70;;;1.60;;
18657;SDS011;9458;50.942;5.074;2022-10-16T04:51:00;2.67;;;1.60;;
18657;SDS011;9458;50.942;5.074;2022-10-16T04:53:28;2.00;;;1.70;;
18657;SDS011;9458;50.942;5.074;2022-10-16T04:55:55;4.70;;;1.85;;
18657;SDS011;9458;50.942;5.074;2022-10-16T04:58:24;2.40;;;1.73;;
18657;SDS011;9458;50.942;5.074;2022-10-16T05:00:52;2.83;;;1.75;;
18657;SDS011;9458;50.942;5.074;2022-10-16T05:03:21;3.67;;;1.80;;
18657;SDS011;9458;50.942;5.074;2022-10-16T05:05:48;3.33;;;1.98;;
18657;SDS011;9458;50.942;5.074;2022-10-16T05:08:16;2.03;;;1.88;;
18657;SDS011;9458;50.942;5.074;2022-10-16T05:10:44;2.47;;;1.70;;
18657;SDS011;9458;50.942;5.074;2022-10-16T05:13:12;6.05;;;1.70;;
18657;SDS011;9458;50.942;5.074;2022-10-16T05:15:40;2.63;;;1.55;;
18657;SDS011;9458;50.942;5.074;2022-10-16T05:18:08;4.45;;;1.80;;
18657;SDS011;9458;50.942;5.074;2022-10-16T05:20:36;3.83;;;2.20;;
18657;SDS011;9458;50.942;5.074;2022-10-16T05:23:03;2.17;;;1.92;;
18657;SDS011;9458;50.942;5.074;2022-10-16T05:25:30;3.03;;;2.38;;
18657;SDS011;9458;50.942;5.074;2022-10-16T05:27:58;3.53;;;2.53;;
18657;SDS011;9458;50.942;5.074;2022-10-16T05:30:26;4.13;;;2.38;;
18657;SDS011;9458;50.942;5.074;2022-10-16T05:32:54;3.15;;;2.10;;
18657;SDS011;9458;50.942;5.074;2022-10-16T05:35:22;4.40;;;2.75;;
18657;SDS011;9458;50.942;5.074;2022-10-16T05:37:49;2.78;;;2.50;;
18657;SDS011;9458;50.942;5.074;2022-10-16T05:40:17;3.70;;;2.35;;
18657;SDS011;9458;50.942;5.074;2022-10-16T05:42:45;4.88;;;2.83;;
18657;SDS011;9458;50.942;5.074;2022-10-16T05:45:13;5.22;;;2.67;;
18657;SDS011;9458;50.942;5.074;2022-10-16T05:47:41;3.25;;;2.60;;
18657;SDS011;9458;50.942;5.074;2022-10-16T05:50:10;4.32;;;2.88;;
18657;SDS011;9458;50.942;5.074;2022-10-16T05:52:37;3.47;;;2.80;;
18657;SDS011;9458;50.942;5.074;2022-10-16T05:55:05;4.38;;;3.22;;
18657;SDS011;9458;50.942;5.074;2022-10-16T05:57:32;5.25;;;2.85;;
18657;SDS011;9458;50.942;5.074;2022-10-16T06:00:00;4.28;;;2.63;;
18657;SDS011;9458;50.942;5.074;2022-10-16T06:02:29;4.43;;;2.92;;
18657;SDS011;9458;50.942;5.074;2022-10-16T06:04:56;3.15;;;2.70;;
18657;SDS011;9458;50.942;5.074;2022-10-16T06:07:24;3.97;;;3.40;;
18657;SDS011;9458;50.942;5.074;2022-10-16T06:10:01;3.20;;;3.00;;
18657;SDS011;9458;50.942;5.074;2022-10-16T06:12:31;5.88;;;5.28;;
18657;SDS011;9458;50.942;5.074;2022-10-16T06:14:58;4.50;;;3.50;;
18657;SDS011;9458;50.942;5.074;2022-10-16T06:17:26;4.75;;;3.40;;
18657;SDS011;9458;50.942;5.074;2022-10-16T06:19:54;4.00;;;3.42;;
18657;SDS011;9458;50.942;5.074;2022-10-16T06:22:21;4.70;;;3.22;;
18657;SDS011;9458;50.942;5.074;2022-10-16T06:24:51;4.78;;;3.38;;
18657;SDS011;9458;50.942;5.074;2022-10-16T06:27:18;3.13;;;2.83;;
18657;SDS011;9458;50.942;5.074;2022-10-16T06:29:47;8.70;;;3.25;;
18657;SDS011;9458;50.942;5.074;2022-10-16T06:32:14;4.90;;;3.30;;
18657;SDS011;9458;50.942;5.074;2022-10-16T06:34:42;3.50;;;3.20;;
18657;SDS011;9458;50.942;5.074;2022-10-16T06:37:09;6.38;;;3.30;;
18657;SDS011;9458;50.942;5.074;2022-10-16T06:39:36;4.53;;;3.30;;
18657;SDS011;9458;50.942;5.074;2022-10-16T06:42:06;4.00;;;3.50;;
18657;SDS011;9458;50.942;5.074;2022-10-16T06:44:33;4.95;;;3.50;;
18657;SDS011;9458;50.942;5.074;2022-10-16T06:47:01;4.63;;;4.00;;
18657;SDS011;9458;50.942;5.074;2022-10-16T06:49:28;6.07;;;4.00;;
18657;SDS011;9458;50.942;5.074;2022-10-16T06:51:56;6.28;;;3.47;;
18657;SDS011;9458;50.942;5.074;2022-10-16T06:54:23;5.03;;;4.03;;
18657;SDS011;9458;50.942;5.074;2022-10-16T06:56:51;4.18;;;3.67;;
18657;SDS011;9458;50.942;5.074;2022-10-16T06:59:21;4.38;;;3.20;;
18657;SDS011;9458;50.942;5.074;2022-10-16T07:01:48;4.65;;;4.13;;
18657;SDS011;9458;50.942;5.074;2022-10-16T07:04:16;3.58;;;3.20;;
18657;SDS011;9458;50.942;5.074;2022-10-16T07:06:44;5.50;;;3.03;;
18657;SDS011;9458;50.942;5.074;2022-10-16T07:09:11;3.05;;;2.63;;
18657;SDS011;9458;50.942;5.074;2022-10-16T07:11:39;4.97;;;2.53;;
18657;SDS011;9458;50.942;5.074;2022-10-16T07:14:10;3.65;;;3.00;;
18657;SDS011;9458;50.942;5.074;2022-10-16T07:16:44;3.88;;;2.42;;
18657;SDS011;9458;50.942;5.074;2022-10-16T07:19:12;4.65;;;2.20;;
18657;SDS011;9458;50.942;5.074;2022-10-16T07:21:40;2.65;;;2.00;;
18657;SDS011;9458;50.942;5.074;2022-10-16T07:24:11;2.58;;;2.38;;
18657;SDS011;9458;50.942;5.074;2022-10-16T07:26:39;4.78;;;2.20;;
18657;SDS011;9458;50.942;5.074;2022-10-16T07:29:07;2.45;;;1.77;;
18657;SDS011;9458;50.942;5.074;2022-10-16T07:31:41;2.10;;;1.90;;
18657;SDS011;9458;50.942;5.074;2022-10-16T07:34:10;2.58;;;1.80;;
18657;SDS011;9458;50.942;5.074;2022-10-16T07:36:39;1.70;;;1.60;;
18657;SDS011;9458;50.942;5.074;2022-10-16T07:39:06;1.60;;;1.50;;
18657;SDS011;9458;50.942;5.074;2022-10-16T07:41:34;1.90;;;1.80;;
18657;SDS011;9458;50.942;5.074;2022-10-16T07:44:03;2.25;;;1.50;;
18657;SDS011;9458;50.942;5.074;2022-10-16T07:46:31;3.60;;;2.05;;
18657;SDS011;9458;50.942;5.074;2022-10-16T07:49:03;2.05;;;1.73;;
18657;SDS011;9458;50.942;5.074;2022-10-16T07:51:32;3.20;;;1.60;;
18657;SDS011;9458;50.942;5.074;2022-10-16T07:54:00;2.55;;;1.60;;
18657;SDS011;9458;50.942;5.074;2022-10-16T07:56:27;4.97;;;1.80;;
18657;SDS011;9458;50.942;5.074;2022-10-16T07:58:57;3.00;;;1.45;;
18657;SDS011;9458;50.942;5.074;2022-10-16T08:01:24;1.58;;;1.40;;
18657;SDS011;9458;50.942;5.074;2022-10-16T08:03:53;2.53;;;1.70;;
18657;SDS011;9458;50.942;5.074;2022-10-16T08:06:21;2.08;;;1.30;;
18657;SDS011;9458;50.942;5.074;2022-10-16T08:08:50;2.50;;;1.60;;
18657;SDS011;9458;50.942;5.074;2022-10-16T08:11:18;2.10;;;1.40;;
18657;SDS011;9458;50.942;5.074;2022-10-16T08:13:45;2.80;;;1.40;;
18657;SDS011;9458;50.942;5.074;2022-10-16T08:16:12;1.95;;;1.52;;
18657;SDS011;9458;50.942;5.074;2022-10-16T08:18:40;2.60;;;1.50;;
18657;SDS011;9458;50.942;5.074;2022-10-16T08:21:11;1.65;;;1.55;;
18657;SDS011;9458;50.942;5.074;2022-10-16T08:23:40;1.48;;;1.38;;
18657;SDS011;9458;50.942;5.074;2022-10-16T08:26:10;1.92;;;1.48;;
18657;SDS011;9458;50.942;5.074;2022-10-16T08:28:38;1.50;;;1.40;;
18657;SDS011;9458;50.942;5.074;2022-10-16T08:31:07;2.38;;;1.60;;
18657;SDS011;9458;50.942;5.074;2022-10-16T08:33:36;2.53;;;1.50;;
18657;SDS011;9458;50.942;5.074;2022-10-16T08:36:04;3.20;;;1.63;;
18657;SDS011;9458;50.942;5.074;2022-10-16T08:38:32;1.90;;;1.30;;
18657;SDS011;9458;50.942;5.074;2022-10-16T08:41:08;2.50;;;1.63;;
18657;SDS011;9458;50.942;5.074;2022-10-16T08:43:54;2.97;;;1.80;;
18657;SDS011;9458;50.942;5.074;2022-10-16T08:46:39;2.00;;;1.52;;
18657;SDS011;9458;50.942;5.074;2022-10-16T08:49:13;1.50;;;1.40;;
18657;SDS011;9458;50.942;5.074;2022-10-16T08:51:41;2.45;;;1.25;;
18657;SDS011;9458;50.942;5.074;2022-10-16T08:54:15;2.90;;;1.38;;
18657;SDS011;9458;50.942;5.074;2022-10-16T08:56:51;2.85;;;1.42;;
18657;SDS011;9458;50.942;5.074;2022-10-16T08:59:21;2.28;;;1.30;;
18657;SDS011;9458;50.942;5.074;2022-10-16T09:01:49;3.22;;;1.58;;
18657;SDS011;9458;50.942;5.074;2022-10-16T09:07:23;5.45;;;1.63;;
18657;SDS011;9458;50.942;5.074;2022-10-16T09:10:03;1.55;;;1.23;;
18657;SDS011;9458;50.942;5.074;2022-10-16T09:12:43;1.88;;;1.45;;
18657;SDS011;9458;50.942;5.074;2022-10-16T09:15:17;8.35;;;1.85;;
18657;SDS011;9458;50.942;5.074;2022-10-16T09:17:56;2.30;;;1.60;;
18657;SDS011;9458;50.942;5.074;2022-10-16T09:20:38;5.00;;;1.40;;
18657;SDS011;9458;50.942;5.074;2022-10-16T09:23:15;3.03;;;1.58;;
18657;SDS011;9458;50.942;5.074;2022-10-16T09:25:46;2.03;;;1.20;;
18657;SDS011;9458;50.942;5.074;2022-10-16T09:28:17;4.90;;;1.40;;
18657;SDS011;9458;50.942;5.074;2022-10-16T09:30:45;2.53;;;1.23;;
18657;SDS011;9458;50.942;5.074;2022-10-16T09:33:15;1.90;;;1.30;;
18657;SDS011;9458;50.942;5.074;2022-10-16T09:35:46;4.05;;;1.27;;
18657;SDS011;9458;50.942;5.074;2022-10-16T09:38:27;2.67;;;1.05;;
18657;SDS011;9458;50.942;5.074;2022-10-16T09:40:55;2.45;;;1.38;;
18657;SDS011;9458;50.942;5.074;2022-10-16T09:43:25;2.70;;;1.38;;
18657;SDS011;9458;50.942;5.074;2022-10-16T09:45:57;25.65;;;1.90;;
18657;SDS011;9458;50.942;5.074;2022-10-16T09:48:26;2.20;;;1.23;;
18657;SDS011;9458;50.942;5.074;2022-10-16T09:50:59;3.35;;;1.30;;
18657;SDS011;9458;50.942;5.074;2022-10-16T09:53:41;3.90;;;1.15;;
18657;SDS011;9458;50.942;5.074;2022-10-16T09:56:10;5.75;;;1.17;;
18657;SDS011;9458;50.942;5.074;2022-10-16T09:58:49;5.82;;;1.23;;
18657;SDS011;9458;50.942;5.074;2022-10-16T10:01:17;7.28;;;2.10;;
18657;SDS011;9458;50.942;5.074;2022-10-16T10:03:46;2.15;;;1.15;;
18657;SDS011;9458;50.942;5.074;2022-10-16T10:06:18;2.92;;;1.00;;
18657;SDS011;9458;50.942;5.074;2022-10-16T10:08:56;1.42;;;1.15;;
18657;SDS011;9458;50.942;5.074;2022-10-16T10:11:40;1.42;;;0.88;;
18657;SDS011;9458;50.942;5.074;2022-10-16T10:14:17;4.97;;;1.60;;
18657;SDS011;9458;50.942;5.074;2022-10-16T10:17:09;2.10;;;0.80;;
18657;SDS011;9458;50.942;5.074;2022-10-16T10:19:51;2.13;;;0.95;;
18657;SDS011;9458;50.942;5.074;2022-10-16T10:22:25;2.20;;;0.93;;
18657;SDS011;9458;50.942;5.074;2022-10-16T10:25:01;2.22;;;0.98;;
18657;SDS011;9458;50.942;5.074;2022-10-16T10:28:06;3.75;;;0.95;;
18657;SDS011;9458;50.942;5.074;2022-10-16T10:30:47;3.92;;;1.00;;
18657;SDS011;9458;50.942;5.074;2022-10-16T10:33:24;3.55;;;1.00;;
18657;SDS011;9458;50.942;5.074;2022-10-16T10:36:02;3.25;;;1.15;;
18657;SDS011;9458;50.942;5.074;2022-10-16T10:38:41;3.10;;;1.13;;
18657;SDS011;9458;50.942;5.074;2022-10-16T10:41:21;3.05;;;1.20;;
18657;SDS011;9458;50.942;5.074;2022-10-16T10:44:16;1.75;;;0.90;;
18657;SDS011;9458;50.942;5.074;2022-10-16T10:46:56;1.70;;;0.77;;
18657;SDS011;9458;50.942;5.074;2022-10-16T10:49:31;0.95;;;0.73;;
18657;SDS011;9458;50.942;5.074;2022-10-16T10:52:12;2.05;;;0.90;;
18657;SDS011;9458;50.942;5.074;2022-10-16T10:54:52;2.80;;;0.85;;
18657;SDS011;9458;50.942;5.074;2022-10-16T10:57:29;1.58;;;1.08;;
18657;SDS011;9458;50.942;5.074;2022-10-16T11:00:05;1.67;;;1.10;;
18657;SDS011;9458;50.942;5.074;2022-10-16T11:02:46;2.03;;;0.90;;
18657;SDS011;9458;50.942;5.074;2022-10-16T11:05:27;2.85;;;1.10;;
18657;SDS011;9458;50.942;5.074;2022-10-16T11:08:00;2.47;;;0.90;;
18657;SDS011;9458;50.942;5.074;2022-10-16T11:10:34;3.63;;;1.17;;
18657;SDS011;9458;50.942;5.074;2022-10-16T11:13:15;2.58;;;0.70;;
18657;SDS011;9458;50.942;5.074;2022-10-16T11:15:50;3.22;;;0.68;;
18657;SDS011;9458;50.942;5.074;2022-10-16T11:18:26;2.00;;;0.95;;
18657;SDS011;9458;50.942;5.074;2022-10-16T11:21:02;2.00;;;1.00;;
18657;SDS011;9458;50.942;5.074;2022-10-16T11:23:33;3.28;;;1.08;;
18657;SDS011;9458;50.942;5.074;2022-10-16T11:26:10;2.17;;;1.10;;
18657;SDS011;9458;50.942;5.074;2022-10-16T11:28:42;2.97;;;1.00;;
18657;SDS011;9458;50.942;5.074;2022-10-16T11:31:14;3.85;;;1.00;;
18657;SDS011;9458;50.942;5.074;2022-10-16T11:33:49;1.67;;;0.88;;
18657;SDS011;9458;50.942;5.074;2022-10-16T11:36:22;0.77;;;0.77;;
18657;SDS011;9458;50.942;5.074;2022-10-16T11:38:53;4.25;;;1.75;;
18657;SDS011;9458;50.942;5.074;2022-10-16T11:41:27;2.30;;;0.90;;
18657;SDS011;9458;50.942;5.074;2022-10-16T11:46:51;1.60;;;0.70;;
18657;SDS011;9458;50.942;5.074;2022-10-16T11:49:26;3.95;;;1.02;;
18657;SDS011;9458;50.942;5.074;2022-10-16T11:51:59;2.08;;;0.90;;
18657;SDS011;9458;50.942;5.074;2022-10-16T11:54:35;3.22;;;1.00;;
18657;SDS011;9458;50.942;5.074;2022-10-16T11:57:09;3.92;;;1.15;;
18657;SDS011;9458;50.942;5.074;2022-10-16T11:59:42;3.47;;;0.90;;
18657;SDS011;9458;50.942;5.074;2022-10-16T12:02:22;2.40;;;0.82;;
18657;SDS011;9458;50.942;5.074;2022-10-16T12:05:14;2.10;;;1.00;;
18657;SDS011;9458;50.942;5.074;2022-10-16T12:07:49;1.83;;;0.80;;
18657;SDS011;9458;50.942;5.074;2022-10-16T12:10:23;1.95;;;1.00;;
18657;SDS011;9458;50.942;5.074;2022-10-16T12:12:51;2.25;;;1.10;;
18657;SDS011;9458;50.942;5.074;2022-10-16T12:15:20;2.33;;;0.80;;
18657;SDS011;9458;50.942;5.074;2022-10-16T12:17:50;1.92;;;0.98;;
18657;SDS011;9458;50.942;5.074;2022-10-16T12:20:24;2.40;;;1.35;;
18657;SDS011;9458;50.942;5.074;2022-10-16T12:22:56;1.95;;;0.80;;
18657;SDS011;9458;50.942;5.074;2022-10-16T12:25:26;3.15;;;0.90;;
18657;SDS011;9458;50.942;5.074;2022-10-16T12:27:57;2.83;;;0.82;;
18657;SDS011;9458;50.942;5.074;2022-10-16T12:30:27;1.30;;;0.73;;
18657;SDS011;9458;50.942;5.074;2022-10-16T12:32:56;1.20;;;0.77;;
18657;SDS011;9458;50.942;5.074;2022-10-16T12:35:27;2.40;;;0.70;;
18657;SDS011;9458;50.942;5.074;2022-10-16T12:38:04;2.05;;;0.95;;
18657;SDS011;9458;50.942;5.074;2022-10-16T12:40:40;2.47;;;1.00;;
18657;SDS011;9458;50.942;5.074;2022-10-16T12:43:13;1.80;;;0.90;;
18657;SDS011;9458;50.942;5.074;2022-10-16T12:45:59;3.42;;;0.88;;
18657;SDS011;9458;50.942;5.074;2022-10-16T12:48:28;1.73;;;0.88;;
18657;SDS011;9458;50.942;5.074;2022-10-16T12:51:08;3.70;;;1.00;;
18657;SDS011;9458;50.942;5.074;2022-10-16T12:53:36;2.78;;;0.93;;
18657;SDS011;9458;50.942;5.074;2022-10-16T12:56:08;1.80;;;0.85;;
18657;SDS011;9458;50.942;5.074;2022-10-16T12:58:45;1.63;;;1.10;;
18657;SDS011;9458;50.942;5.074;2022-10-16T13:01:28;1.88;;;1.10;;
18657;SDS011;9458;50.942;5.074;2022-10-16T13:04:27;3.63;;;1.00;;
18657;SDS011;9458;50.942;5.074;2022-10-16T13:07:06;1.95;;;0.90;;
18657;SDS011;9458;50.942;5.074;2022-10-16T13:09:52;2.53;;;0.85;;
18657;SDS011;9458;50.942;5.074;2022-10-16T13:12:39;2.25;;;1.10;;
18657;SDS011;9458;50.942;5.074;2022-10-16T13:15:27;1.25;;;0.90;;
18657;SDS011;9458;50.942;5.074;2022-10-16T13:18:03;2.80;;;0.90;;
18657;SDS011;9458;50.942;5.074;2022-10-16T13:20:36;3.67;;;1.10;;
18657;SDS011;9458;50.942;5.074;2022-10-16T13:23:15;4.45;;;0.90;;
18657;SDS011;9458;50.942;5.074;2022-10-16T13:25:52;2.70;;;0.98;;
18657;SDS011;9458;50.942;5.074;2022-10-16T13:28:29;2.25;;;1.00;;
18657;SDS011;9458;50.942;5.074;2022-10-16T13:30:59;1.60;;;0.70;;
18657;SDS011;9458;50.942;5.074;2022-10-16T13:33:30;1.77;;;0.90;;
18657;SDS011;9458;50.942;5.074;2022-10-16T13:36:00;2.80;;;0.90;;
18657;SDS011;9458;50.942;5.074;2022-10-16T13:38:30;4.07;;;0.90;;
18657;SDS011;9458;50.942;5.074;2022-10-16T13:40:59;2.80;;;0.75;;
18657;SDS011;9458;50.942;5.074;2022-10-16T13:43:29;1.77;;;0.90;;
18657;SDS011;9458;50.942;5.074;2022-10-16T13:46:01;1.88;;;0.80;;
18657;SDS011;9458;50.942;5.074;2022-10-16T13:48:30;0.93;;;0.70;;
18657;SDS011;9458;50.942;5.074;2022-10-16T13:50:59;2.47;;;0.80;;
18657;SDS011;9458;50.942;5.074;2022-10-16T13:53:29;2.50;;;1.33;;
18657;SDS011;9458;50.942;5.074;2022-10-16T13:55:59;1.35;;;0.75;;
18657;SDS011;9458;50.942;5.074;2022-10-16T13:58:27;4.00;;;0.90;;
18657;SDS011;9458;50.942;5.074;2022-10-16T14:00:55;2.90;;;1.23;;
18657;SDS011;9458;50.942;5.074;2022-10-16T14:03:24;2.10;;;0.85;;
18657;SDS011;9458;50.942;5.074;2022-10-16T14:05:54;2.90;;;0.90;;
18657;SDS011;9458;50.942;5.074;2022-10-16T14:08:23;1.55;;;0.90;;
18657;SDS011;9458;50.942;5.074;2022-10-16T14:10:54;1.52;;;0.70;;
18657;SDS011;9458;50.942;5.074;2022-10-16T14:13:29;3.38;;;0.85;;
18657;SDS011;9458;50.942;5.074;2022-10-16T14:16:02;2.40;;;0.90;;
18657;SDS011;9458;50.942;5.074;2022-10-16T14:18:32;2.72;;;1.20;;
18657;SDS011;9458;50.942;5.074;2022-10-16T14:21:04;3.05;;;1.13;;
18657;SDS011;9458;50.942;5.074;2022-10-16T14:23:34;1.83;;;1.02;;
18657;SDS011;9458;50.942;5.074;2022-10-16T14:26:15;2.58;;;1.02;;
18657;SDS011;9458;50.942;5.074;2022-10-16T14:28:44;3.00;;;0.80;;
18657;SDS011;9458;50.942;5.074;2022-10-16T14:31:24;2.05;;;0.70;;
18657;SDS011;9458;50.942;5.074;2022-10-16T14:33:53;2.40;;;1.00;;
18657;SDS011;9458;50.942;5.074;2022-10-16T14:36:21;2.05;;;0.70;;
18657;SDS011;9458;50.942;5.074;2022-10-16T14:38:52;3.08;;;1.00;;
18657;SDS011;9458;50.942;5.074;2022-10-16T14:41:32;0.82;;;0.75;;
18657;SDS011;9458;50.942;5.074;2022-10-16T14:44:02;4.40;;;1.05;;
18657;SDS011;9458;50.942;5.074;2022-10-16T14:46:32;2.20;;;1.00;;
18657;SDS011;9458;50.942;5.074;2022-10-16T14:49:03;1.85;;;1.02;;
18657;SDS011;9458;50.942;5.074;2022-10-16T14:51:40;1.05;;;0.82;;
18657;SDS011;9458;50.942;5.074;2022-10-16T14:54:11;1.83;;;1.48;;
18657;SDS011;9458;50.942;5.074;2022-10-16T14:56:45;2.38;;;0.90;;
18657;SDS011;9458;50.942;5.074;2022-10-16T14:59:16;2.40;;;1.08;;
18657;SDS011;9458;50.942;5.074;2022-10-16T15:01:46;2.20;;;1.15;;
18657;SDS011;9458;50.942;5.074;2022-10-16T15:04:14;1.65;;;1.05;;
18657;SDS011;9458;50.942;5.074;2022-10-16T15:06:41;2.95;;;0.90;;
18657;SDS011;9458;50.942;5.074;2022-10-16T15:09:09;3.28;;;2.97;;
18657;SDS011;9458;50.942;5.074;2022-10-16T15:11:36;2.80;;;2.00;;
18657;SDS011;9458;50.942;5.074;2022-10-16T15:14:05;1.77;;;1.65;;
18657;SDS011;9458;50.942;5.074;2022-10-16T15:16:32;2.13;;;1.40;;
18657;SDS011;9458;50.942;5.074;2022-10-16T15:18:59;2.83;;;1.23;;
18657;SDS011;9458;50.942;5.074;2022-10-16T15:21:28;1.38;;;1.05;;
18657;SDS011;9458;50.942;5.074;2022-10-16T15:23:56;1.42;;;1.23;;
18657;SDS011;9458;50.942;5.074;2022-10-16T15:26:24;2.65;;;1.20;;
18657;SDS011;9458;50.942;5.074;2022-10-16T15:28:52;2.80;;;1.45;;
18657;SDS011;9458;50.942;5.074;2022-10-16T15:31:21;1.75;;;1.10;;
18657;SDS011;9458;50.942;5.074;2022-10-16T15:33:49;1.63;;;1.48;;
18657;SDS011;9458;50.942;5.074;2022-10-16T15:36:25;1.35;;;1.25;;